Vango — ZCOX3 — position and weather

sailwx.info

Track history (hours):
 
Tides and Currents Weather Stations Pressure Air Temp Water Temp Dewpoint Dewpoint Depression Visibility Wind Speed Wind Dir Waves Ship Positions

Vango

Last reported at 2017-Jun-24 03:23 UTC. Time now 2017-Jun-24 05:20 UTC.
Position N 43°10' E 009°22'.

Length 49 m; draft 2.4 m.

Type: Pleasure craft. MMSI: 319193000.

Date/timePositionNaut miles runAvg speedWind from/ knotsBaromVisibWave heightAir tempDewpointWater temp
2017-Jun-24 03:23N 43°10' E 009°22'514.2
2017-Jun-24 03:00N 43°13' E 009°16'1414.0
2017-Jun-24 02:01N 43°20' E 009°00'  
2017-Jun-20 16:27N 43°49' E 007°47'0 0.0
2017-Jun-20 15:59N 43°49' E 007°47'0 0.0
2017-Jun-20 15:30N 43°49' E 007°47'0 0.0
2017-Jun-20 14:59N 43°49' E 007°47'0 0.0
2017-Jun-20 13:57N 43°49' E 007°47'0 0.0
2017-Jun-20 13:30N 43°49' E 007°47'0 0.0
2017-Jun-20 12:47N 43°49' E 007°47'0 0.0
2017-Jun-20 11:40N 43°49' E 007°47'0 0.0
2017-Jun-20 11:29N 43°49' E 007°47'0 0.0
2017-Jun-20 10:57N 43°49' E 007°47'0 0.0
2017-Jun-20 10:30N 43°49' E 007°47'0 0.0
2017-Jun-20 09:02N 43°49' E 007°47'0 0.0
2017-Jun-20 09:00N 43°49' E 007°47'0 0.0
2017-Jun-20 08:26N 43°49' E 007°47'0 0.0
2017-Jun-20 07:09N 43°49' E 007°47'0 0.0
2017-Jun-20 03:31N 43°49' E 007°47'0 0.0
2017-Jun-20 03:20N 43°49' E 007°47'0 0.0
2017-Jun-20 03:00N 43°49' E 007°47'0 0.0
2017-Jun-20 01:49N 43°49' E 007°47'0 0.0
2017-Jun-20 01:26N 43°49' E 007°47'0 0.0
2017-Jun-20 00:59N 43°49' E 007°47'0 0.0
2017-Jun-19 21:51N 43°49' E 007°47'0 0.0
2017-Jun-19 17:12N 43°49' E 007°47'0 0.0
2017-Jun-19 16:59N 43°49' E 007°47'0 0.0
2017-Jun-19 16:30N 43°49' E 007°47'0 0.0
2017-Jun-19 16:00N 43°49' E 007°47'0 0.0
2017-Jun-19 15:30N 43°49' E 007°47'0 0.0
2017-Jun-19 15:00N 43°49' E 007°47'0 0.0
2017-Jun-19 14:30N 43°49' E 007°47'0 0.0
2017-Jun-19 11:35N 43°49' E 007°47'0 0.0
2017-Jun-19 11:25N 43°49' E 007°47'0 0.0
2017-Jun-19 02:52N 43°49' E 007°47'0 0.0
2017-Jun-19 01:48N 43°49' E 007°47'0 0.0
2017-Jun-19 01:30N 43°49' E 007°47'0 0.0
2017-Jun-19 00:50N 43°49' E 007°47'0 0.0
2017-Jun-18 12:18N 43°49' E 007°47'0 0.0
2017-Jun-17 06:10N 43°49' E 007°47'0 0.0
2017-Jun-17 05:57N 43°49' E 007°47'0 0.0
2017-Jun-17 05:30N 43°49' E 007°47'0 0.0
2017-Jun-17 04:43N 43°49' E 007°47'0 0.0
2017-Jun-17 04:30N 43°49' E 007°47'0 0.0
2017-Jun-17 02:46N 43°49' E 007°47'0 0.0
2017-Jun-16 20:54N 43°49' E 007°47'0 0.0
2017-Jun-16 20:29N 43°49' E 007°47'0 0.0
2017-Jun-16 19:52N 43°49' E 007°47'0 0.0
2017-Jun-16 19:30N 43°49' E 007°47'0 0.0
2017-Jun-16 18:59N 43°49' E 007°47'0 0.0
2017-Jun-16 18:30N 43°49' E 007°47'0 0.0
2017-Jun-16 18:00N 43°49' E 007°47'0 0.0
2017-Jun-16 17:24N 43°49' E 007°47'0 0.0
2017-Jun-16 16:56N 43°49' E 007°47'0 0.0
2017-Jun-16 16:30N 43°49' E 007°47'2 2.8
2017-Jun-16 15:56N 43°48' E 007°46'27 8.4
2017-Jun-16 12:45N 43°39' E 007°11'0 0.0
2017-Jun-16 12:30N 43°39' E 007°11'1 0.8
2017-Jun-16 11:27N 43°38' E 007°10'813.8
2017-Jun-16 10:54N 43°31' E 007°06'513.7
2017-Jun-16 10:31N 43°30' E 006°59'1 2.7
2017-Jun-16 09:58N 43°31' E 006°57'0 0.0
2017-Jun-16 09:28N 43°31' E 006°57'0 0.1
2017-Jun-16 08:58N 43°31' E 006°57'0 0.0
2017-Jun-16 08:28N 43°31' E 006°57'0 0.4
2017-Jun-16 07:56N 43°31' E 006°57'4 0.2
2017-Jun-15 15:03N 43°27' E 006°58'114.7
2017-Jun-15 15:00N 43°27' E 006°59'8 6.3
2017-Jun-15 13:42N 43°33' E 007°07'0 0.0
2017-Jun-15 10:12N 43°33' E 007°07'2 4.6
2017-Jun-15 09:41N 43°32' E 007°04'1 3.5
2017-Jun-15 09:30N 43°32' E 007°04'2 4.4
2017-Jun-15 09:00N 43°31' E 007°01'1 2.0
2017-Jun-15 08:22N 43°30' E 007°02'4 9.9
2017-Jun-15 07:57N 43°33' E 007°07'  
Track history (hours):
 
Tides and Currents Weather Stations Pressure Air Temp Water Temp Dewpoint Dewpoint Depression Visibility Wind Speed Wind Dir Waves Ship Positions

Vango

Last reported at 2017-Jun-24 03:23 UTC. Time now 2017-Jun-24 05:20 UTC.
Position N 43°10' E 009°22'.

Length 49 m; draft 2.4 m.

Type: Pleasure craft. MMSI: 319193000.

Date/timePositionNaut miles runAvg speedWind from/ knotsBaromVisibWave heightAir tempDewpointWater temp
2017-Jun-24 03:23N 43°10' E 009°22'514.2
2017-Jun-24 03:00N 43°13' E 009°16'1414.0
2017-Jun-24 02:01N 43°20' E 009°00'  
2017-Jun-20 16:27N 43°49' E 007°47'0 0.0
2017-Jun-20 15:59N 43°49' E 007°47'0 0.0
2017-Jun-20 15:30N 43°49' E 007°47'0 0.0
2017-Jun-20 14:59N 43°49' E 007°47'0 0.0
2017-Jun-20 13:57N 43°49' E 007°47'0 0.0
2017-Jun-20 13:30N 43°49' E 007°47'0 0.0
2017-Jun-20 12:47N 43°49' E 007°47'0 0.0
2017-Jun-20 11:40N 43°49' E 007°47'0 0.0
2017-Jun-20 11:29N 43°49' E 007°47'0 0.0
2017-Jun-20 10:57N 43°49' E 007°47'0 0.0
2017-Jun-20 10:30N 43°49' E 007°47'0 0.0
2017-Jun-20 09:02N 43°49' E 007°47'0 0.0
2017-Jun-20 09:00N 43°49' E 007°47'0 0.0
2017-Jun-20 08:26N 43°49' E 007°47'0 0.0
2017-Jun-20 07:09N 43°49' E 007°47'0 0.0
2017-Jun-20 03:31N 43°49' E 007°47'0 0.0
2017-Jun-20 03:20N 43°49' E 007°47'0 0.0
2017-Jun-20 03:00N 43°49' E 007°47'0 0.0
2017-Jun-20 01:49N 43°49' E 007°47'0 0.0
2017-Jun-20 01:26N 43°49' E 007°47'0 0.0
2017-Jun-20 00:59N 43°49' E 007°47'0 0.0
2017-Jun-19 21:51N 43°49' E 007°47'0 0.0
2017-Jun-19 17:12N 43°49' E 007°47'0 0.0
2017-Jun-19 16:59N 43°49' E 007°47'0 0.0
2017-Jun-19 16:30N 43°49' E 007°47'0 0.0
2017-Jun-19 16:00N 43°49' E 007°47'0 0.0
2017-Jun-19 15:30N 43°49' E 007°47'0 0.0
2017-Jun-19 15:00N 43°49' E 007°47'0 0.0
2017-Jun-19 14:30N 43°49' E 007°47'0 0.0
2017-Jun-19 11:35N 43°49' E 007°47'0 0.0
2017-Jun-19 11:25N 43°49' E 007°47'0 0.0
2017-Jun-19 02:52N 43°49' E 007°47'0 0.0
2017-Jun-19 01:48N 43°49' E 007°47'0 0.0
2017-Jun-19 01:30N 43°49' E 007°47'0 0.0
2017-Jun-19 00:50N 43°49' E 007°47'0 0.0
2017-Jun-18 12:18N 43°49' E 007°47'0 0.0
2017-Jun-17 06:10N 43°49' E 007°47'0 0.0
2017-Jun-17 05:57N 43°49' E 007°47'0 0.0
2017-Jun-17 05:30N 43°49' E 007°47'0 0.0
2017-Jun-17 04:43N 43°49' E 007°47'0 0.0
2017-Jun-17 04:30N 43°49' E 007°47'0 0.0
2017-Jun-17 02:46N 43°49' E 007°47'0 0.0
2017-Jun-16 20:54N 43°49' E 007°47'0 0.0
2017-Jun-16 20:29N 43°49' E 007°47'0 0.0
2017-Jun-16 19:52N 43°49' E 007°47'0 0.0
2017-Jun-16 19:30N 43°49' E 007°47'0 0.0
2017-Jun-16 18:59N 43°49' E 007°47'0 0.0
2017-Jun-16 18:30N 43°49' E 007°47'0 0.0
2017-Jun-16 18:00N 43°49' E 007°47'0 0.0
2017-Jun-16 17:24N 43°49' E 007°47'0 0.0
2017-Jun-16 16:56N 43°49' E 007°47'0 0.0
2017-Jun-16 16:30N 43°49' E 007°47'2 2.8
2017-Jun-16 15:56N 43°48' E 007°46'27 8.4
2017-Jun-16 12:45N 43°39' E 007°11'0 0.0
2017-Jun-16 12:30N 43°39' E 007°11'1 0.8
2017-Jun-16 11:27N 43°38' E 007°10'813.8
2017-Jun-16 10:54N 43°31' E 007°06'513.7
2017-Jun-16 10:31N 43°30' E 006°59'1 2.7
2017-Jun-16 09:58N 43°31' E 006°57'0 0.0
2017-Jun-16 09:28N 43°31' E 006°57'0 0.1
2017-Jun-16 08:58N 43°31' E 006°57'0 0.0
2017-Jun-16 08:28N 43°31' E 006°57'0 0.4
2017-Jun-16 07:56N 43°31' E 006°57'4 0.2
2017-Jun-15 15:03N 43°27' E 006°58'114.7
2017-Jun-15 15:00N 43°27' E 006°59'8 6.3
2017-Jun-15 13:42N 43°33' E 007°07'0 0.0
2017-Jun-15 10:12N 43°33' E 007°07'2 4.6
2017-Jun-15 09:41N 43°32' E 007°04'1 3.5
2017-Jun-15 09:30N 43°32' E 007°04'2 4.4
2017-Jun-15 09:00N 43°31' E 007°01'1 2.0
2017-Jun-15 08:22N 43°30' E 007°02'4 9.9
2017-Jun-15 07:57N 43°33' E 007°07'  

Dump ship's entire track history